Time;durP1;ratioP1;P1;durP2;ratioP2;P2;SDS_P1;SDS_P2;PMS_P1;PMS_P2;Temp;Humidity;BMP_temperature;BMP_pressure;BME280_temperature;BME280_humidity;BME280_pressure;Samples;Min_cycle;Max_cycle;Signal;HPM_P1;HPM_P2
2022/09/19 00:09:09;;;;;;;0.50;0.22;;;;;;;10.45;73.04;96559.03;5037356;28;20060;-82
2022/09/19 00:15:07;;;;;;;1.40;0.30;;;;;;;10.36;73.69;96566.13;5402390;23;20062;-82
2022/09/19 00:20:35;;;;;;;0.40;0.30;;;;;;;10.35;74.13;96577.56;5627102;23;20091;-81
2022/09/19 00:26:31;;;;;;;1.65;0.55;;;;;;;10.36;75.38;96580.97;5016424;28;20058;-80
2022/09/19 00:29:28;;;;;;;0.95;0.40;;;;;;;10.39;75.33;96578.03;5016681;28;20057;-81
2022/09/19 00:32:44;;;;;;;0.20;0.20;;;;;;;10.43;75.26;96579.25;4993544;28;20054;-79
2022/09/19 00:35:43;;;;;;;0.38;0.20;;;;;;;10.41;74.86;96579.47;4997680;28;20050;-81
2022/09/19 00:41:40;;;;;;;0.43;0.10;;;;;;;10.35;73.59;96589.81;4997338;28;20078;-80
2022/09/19 00:44:58;;;;;;;0.10;0.10;;;;;;;10.27;72.90;96586.25;5000241;28;20078;-81
2022/09/19 00:53:49;;;;;;;1.77;0.10;;;;;;;10.11;73.60;96596.84;4999289;28;19929;-81
2022/09/19 00:56:45;;;;;;;0.30;0.20;;;;;;;10.05;73.90;96594.97;5198268;22;20038;-82
2022/09/19 00:59:24;;;;;;;0.08;0.08;;;;;;;10.02;74.15;96600.53;5021642;28;20030;-82
2022/09/19 01:02:21;;;;;;;0.20;0.10;;;;;;;9.97;73.68;96597.63;5001759;28;20039;-79
2022/09/19 02:27:38;;;;;;;0.75;0.55;;;;;;;9.04;75.23;96631.53;4997127;28;20046;-81
2022/09/19 02:30:53;;;;;;;0.90;0.60;;;;;;;9.06;75.12;96637.38;4998225;28;20043;-82
2022/09/19 02:55:55;;;;;;;0.60;0.40;;;;;;;9.12;75.17;96635.06;5175026;27;20037;-84
2022/09/19 04:17:15;;;;;;;4.32;0.70;;;;;;;9.24;75.21;96717.00;4995804;28;20458;-82
2022/09/19 04:19:52;;;;;;;3.83;0.60;;;;;;;9.25;74.88;96714.22;4997424;28;20058;-82
2022/09/19 04:22:21;;;;;;;3.63;0.77;;;;;;;9.26;75.29;96718.44;4996999;28;20078;-82
2022/09/19 04:24:50;;;;;;;0.95;0.70;;;;;;;9.28;75.50;96721.69;4997731;28;20096;-81
2022/09/19 04:27:18;;;;;;;2.28;0.70;;;;;;;9.30;75.16;96724.13;4997599;28;20057;-81
2022/09/19 04:29:48;;;;;;;1.85;0.50;;;;;;;9.32;75.80;96731.78;4997856;28;20100;-82
2022/09/19 04:32:17;;;;;;;1.90;0.63;;;;;;;9.33;75.82;96736.78;4997086;28;20054;-82
2022/09/19 04:34:47;;;;;;;2.58;0.80;;;;;;;9.35;76.20;96734.84;4996339;28;20057;-81
2022/09/19 04:37:15;;;;;;;2.95;0.60;;;;;;;9.38;76.01;96734.50;4997150;28;20055;-81
2022/09/19 04:39:48;;;;;;;2.50;0.90;;;;;;;9.39;75.95;96736.13;4996834;28;20055;-82
2022/09/19 04:42:15;;;;;;;3.58;0.90;;;;;;;9.41;76.46;96739.34;4996638;28;20058;-81
2022/09/19 04:44:43;;;;;;;3.45;0.98;;;;;;;9.42;76.44;96740.16;5015038;28;20077;-82
2022/09/19 04:47:12;;;;;;;5.90;1.42;;;;;;;9.42;76.11;96735.78;5016420;28;20511;-82
2022/09/19 04:49:41;;;;;;;0.77;0.60;;;;;;;9.40;75.82;96745.56;4999373;28;20053;-82
2022/09/19 04:55:14;;;;;;;2.35;0.93;;;;;;;9.38;75.69;96755.34;5232305;22;20110;-81
2022/09/19 05:01:05;;;;;;;1.40;0.90;;;;;;;9.32;75.75;96750.81;5209019;22;20057;-81
2022/09/19 05:04:23;;;;;;;3.33;0.82;;;;;;;9.31;76.65;96759.56;5038840;28;20404;-81
2022/09/19 05:11:24;;;;;;;32.03;18.10;;;;;;;9.23;76.53;96767.44;4957125;28;20600;-82
2022/09/19 05:13:58;;;;;;;6.10;2.42;;;;;;;9.22;76.03;96771.81;4974451;28;20046;-81
2022/09/19 05:16:30;;;;;;;2.90;1.13;;;;;;;9.22;76.61;96766.59;4974155;28;20054;-81
2022/09/19 05:19:14;;;;;;;2.40;1.02;;;;;;;9.21;76.04;96769.41;4982035;28;20050;-81
2022/09/19 05:21:45;;;;;;;3.78;1.23;;;;;;;9.21;76.52;96772.00;5013209;28;20096;-81
2022/09/19 05:32:35;;;;;;;3.53;0.93;;;;;;;9.21;76.07;96783.22;5406268;22;20060;-81
2022/09/19 05:45:41;;;;;;;6.20;1.20;;;;;;;9.22;75.55;96789.22;5033738;28;20674;-81
2022/09/19 05:48:10;;;;;;;6.22;1.17;;;;;;;9.20;75.81;96793.78;5027635;28;20048;-80
2022/09/19 05:50:38;;;;;;;5.03;1.20;;;;;;;9.18;75.58;96795.75;5035287;28;20030;-82
2022/09/19 05:56:21;;;;;;;3.57;1.10;;;;;;;9.17;76.18;96810.56;5196801;22;20513;-81
2022/09/19 05:59:23;;;;;;;4.40;1.42;;;;;;;9.16;76.03;96815.91;6167979;22;20800;-81
2022/09/19 06:01:56;;;;;;;4.50;1.70;;;;;;;9.15;76.13;96819.50;5035106;28;20053;-82
2022/09/19 06:07:27;;;;;;;3.33;1.13;;;;;;;9.17;76.47;96835.78;5327234;22;19948;-81
2022/09/19 06:10:23;;;;;;;5.03;1.40;;;;;;;9.16;77.15;96821.97;5038277;28;20053;-81
2022/09/19 06:15:48;;;;;;;3.30;1.48;;;;;;;9.23;78.17;96830.72;5054779;22;20426;-81
2022/09/19 06:18:22;;;;;;;13.30;2.20;;;;;;;9.26;77.87;96840.78;5039161;28;20136;-82
2022/09/19 06:20:53;;;;;;;6.10;1.67;;;;;;;9.27;77.56;96836.38;5039181;28;20049;-81
2022/09/19 06:29:35;;;;;;;13.90;2.35;;;;;;;9.32;77.10;96839.31;5021351;28;20089;-81
2022/09/19 06:35:00;;;;;;;4.68;2.50;;;;;;;9.33;77.54;96846.13;5727275;22;20024;-81
2022/09/19 06:37:28;;;;;;;9.90;2.42;;;;;;;9.36;77.07;96852.78;5042563;28;20496;-81
2022/09/19 06:39:56;;;;;;;4.72;1.67;;;;;;;9.37;76.96;96852.63;5028026;28;20052;-80
2022/09/19 06:42:26;;;;;;;5.00;1.35;;;;;;;9.41;77.11;96855.72;5049281;28;20052;-81
2022/09/19 06:44:56;;;;;;;10.33;1.77;;;;;;;9.44;77.05;96853.56;5051447;28;20052;-79
2022/09/19 06:47:23;;;;;;;5.65;1.83;;;;;;;9.47;76.78;96850.66;5050273;28;20523;-81
2022/09/19 06:49:52;;;;;;;6.32;2.35;;;;;;;9.49;76.82;96856.50;5050751;28;20053;-79
2022/09/19 06:52:19;;;;;;;6.43;2.58;;;;;;;9.52;76.36;96859.75;5051738;28;20057;-80
2022/09/19 06:54:47;;;;;;;5.10;1.90;;;;;;;9.55;76.19;96859.41;5041018;28;20053;-81
2022/09/19 06:57:15;;;;;;;5.13;2.08;;;;;;;9.56;76.17;96874.06;5051527;28;20402;-81
2022/09/19 06:59:44;;;;;;;8.15;2.60;;;;;;;9.56;76.86;96863.66;5052251;28;20067;-80
2022/09/19 07:02:13;;;;;;;5.65;2.53;;;;;;;9.59;77.29;96873.72;5055858;28;20049;-81
2022/09/19 07:04:41;;;;;;;9.07;2.78;;;;;;;9.61;76.76;96874.38;5052615;28;20503;-80
2022/09/19 07:07:08;;;;;;;10.77;2.72;;;;;;;9.62;77.22;96886.38;5040801;28;20053;-81
2022/09/19 07:09:36;;;;;;;11.48;3.75;;;;;;;9.63;76.82;96893.25;5044687;28;20048;-81
2022/09/19 07:12:04;;;;;;;10.20;3.90;;;;;;;9.63;76.97;96891.44;5050035;28;20060;-80
2022/09/19 07:14:31;;;;;;;9.20;2.78;;;;;;;9.63;76.56;96893.25;5046129;28;20054;-79
2022/09/19 07:17:00;;;;;;;5.85;2.30;;;;;;;9.63;76.93;96890.63;5045432;28;20041;-80
2022/09/19 07:19:28;;;;;;;5.20;1.98;;;;;;;9.67;76.94;96886.72;5050966;28;20056;-80
2022/09/19 07:21:56;;;;;;;8.50;2.35;;;;;;;9.71;76.66;96901.03;5048235;28;20423;-80
2022/09/19 07:24:24;;;;;;;4.53;1.73;;;;;;;9.74;76.89;96894.66;5053689;28;20053;-81
2022/09/19 07:26:51;;;;;;;6.75;2.10;;;;;;;9.77;76.17;96900.34;5042100;28;20060;-80
2022/09/19 07:29:19;;;;;;;7.53;2.20;;;;;;;9.80;76.34;96905.22;5031568;28;20431;-80
2022/09/19 07:31:47;;;;;;;4.85;1.67;;;;;;;9.83;76.43;96911.88;5033431;28;20045;-80
2022/09/19 07:34:16;;;;;;;4.72;2.45;;;;;;;9.86;76.97;96914.13;5054707;28;20421;-80
2022/09/19 07:36:43;;;;;;;7.90;2.72;;;;;;;9.87;77.03;96918.38;5035443;28;20148;-79
2022/09/19 07:39:11;;;;;;;6.18;2.13;;;;;;;9.92;76.55;96917.88;5041043;28;20084;-80
2022/09/19 07:41:38;;;;;;;4.00;1.70;;;;;;;9.95;76.73;96917.53;5047026;28;20132;-80
2022/09/19 07:44:06;;;;;;;12.20;2.22;;;;;;;9.98;76.52;96918.00;5043143;28;20045;-78
2022/09/19 07:46:33;;;;;;;2.42;1.80;;;;;;;10.01;75.92;96924.66;5052898;28;20052;-79
2022/09/19 07:49:01;;;;;;;7.90;2.22;;;;;;;10.04;75.55;96929.56;5041753;28;20048;-80
2022/09/19 07:51:30;;;;;;;11.85;2.33;;;;;;;10.07;75.34;96927.41;5036792;28;20049;-79
2022/09/19 07:53:58;;;;;;;4.95;2.03;;;;;;;10.10;75.40;96937.50;5035219;28;20695;-79
2022/09/19 07:56:25;;;;;;;6.07;2.03;;;;;;;10.10;74.81;96942.72;5046674;28;20132;-80
2022/09/19 07:58:53;;;;;;;8.70;2.33;;;;;;;10.13;74.88;96945.97;5042254;28;20076;-79
2022/09/19 08:01:20;;;;;;;30.98;15.90;;;;;;;10.15;75.26;96952.63;5040561;28;20053;-80
2022/09/19 08:03:49;;;;;;;19.98;9.18;;;;;;;10.15;75.19;96959.66;5049278;28;20068;-80
2022/09/19 08:06:17;;;;;;;11.40;5.18;;;;;;;10.13;75.19;96964.22;5037315;28;20053;-81
2022/09/19 08:08:46;;;;;;;9.98;3.58;;;;;;;10.14;75.51;96964.03;5034942;28;20056;-79
2022/09/19 08:11:13;;;;;;;7.03;2.20;;;;;;;10.15;75.08;96964.88;5048890;28;20052;-80
2022/09/19 08:13:42;;;;;;;6.97;2.55;;;;;;;10.17;74.70;96963.72;5054541;28;20048;-80
2022/09/19 08:16:10;;;;;;;10.38;2.33;;;;;;;10.19;74.52;96966.97;5048996;28;20051;-79
2022/09/19 08:18:40;;;;;;;6.78;3.25;;;;;;;10.20;74.27;96973.78;5042136;28;20045;-79
2022/09/19 08:21:08;;;;;;;7.50;2.85;;;;;;;10.24;74.63;96972.47;5050434;28;20056;-80
2022/09/19 08:23:36;;;;;;;7.43;2.53;;;;;;;10.31;75.45;96973.44;5038926;28;20060;-79
2022/09/19 08:26:10;;;;;;;6.25;2.33;;;;;;;10.38;74.49;96980.56;5036743;28;20077;-79
2022/09/19 08:28:37;;;;;;;5.20;2.03;;;;;;;10.44;74.11;96980.69;5047138;28;20446;-79
2022/09/19 08:31:07;;;;;;;7.40;2.47;;;;;;;10.51;74.36;96978.22;5053621;28;20052;-78
2022/09/19 08:33:34;;;;;;;6.07;1.95;;;;;;;10.58;74.37;96976.53;5052477;28;20049;-80
2022/09/19 08:36:02;;;;;;;3.78;1.77;;;;;;;10.65;74.26;96981.91;5052616;28;20521;-80
2022/09/19 08:38:30;;;;;;;32.25;18.58;;;;;;;10.74;73.89;96983.47;5054133;28;20075;-81
2022/09/19 08:41:28;;;;;;;28.73;16.55;;;;;;;10.81;72.78;96986.19;5041966;28;20050;-80
2022/09/19 08:44:00;;;;;;;9.38;4.25;;;;;;;10.88;72.53;96987.94;5033981;28;20049;-79
2022/09/19 08:46:35;;;;;;;3.90;2.03;;;;;;;10.95;72.06;97001.09;5042205;28;20044;-79
2022/09/19 08:49:06;;;;;;;6.68;2.28;;;;;;;11.01;71.88;96997.78;5040341;28;20060;-80
2022/09/19 08:51:42;;;;;;;4.97;2.10;;;;;;;11.09;71.79;96999.53;5041475;28;20049;-78
2022/09/19 08:54:13;;;;;;;4.80;1.80;;;;;;;11.14;71.45;97002.44;5052548;28;20052;-80
2022/09/19 08:56:44;;;;;;;3.65;1.88;;;;;;;11.18;71.06;97008.94;5038291;28;20061;-79
2022/09/19 08:59:15;;;;;;;7.25;2.05;;;;;;;11.17;70.99;96999.47;5039939;28;20132;-79
2022/09/19 09:01:43;;;;;;;4.00;1.85;;;;;;;11.20;71.04;97006.16;5033058;28;20510;-79
2022/09/19 09:04:25;;;;;;;5.03;2.20;;;;;;;11.23;71.01;97008.41;5037703;28;20091;-77
2022/09/19 09:07:02;;;;;;;5.30;2.00;;;;;;;11.25;71.25;97012.47;5045374;28;20691;-80
2022/09/19 09:09:45;;;;;;;4.90;1.85;;;;;;;11.29;70.85;97012.94;5052429;28;20053;-80
2022/09/19 09:12:23;;;;;;;6.05;1.58;;;;;;;11.34;71.02;97013.19;5052831;28;20045;-79
2022/09/19 09:15:01;;;;;;;3.55;2.03;;;;;;;11.37;70.21;97028.53;5052978;28;20407;-80
2022/09/19 09:17:57;;;;;;;5.70;1.92;;;;;;;11.37;70.08;97033.75;5051929;28;20569;-81
2022/09/19 09:20:41;;;;;;;5.07;1.85;;;;;;;11.34;70.86;97024.47;5052752;28;20048;-80
2022/09/19 09:23:15;;;;;;;4.28;1.42;;;;;;;11.32;70.14;97030.84;5052638;28;20071;-79
2022/09/19 09:25:46;;;;;;;8.43;2.97;;;;;;;11.30;70.25;97033.66;5044593;28;20049;-79
2022/09/19 09:28:26;;;;;;;5.47;2.72;;;;;;;11.28;70.22;97026.97;5034032;28;20510;-79
2022/09/19 09:31:07;;;;;;;8.10;2.40;;;;;;;11.29;70.91;97034.63;5033155;28;20057;-79
2022/09/19 09:33:40;;;;;;;6.07;3.35;;;;;;;11.32;70.06;97033.47;5035223;28;20077;-80
2022/09/19 09:36:19;;;;;;;7.68;2.35;;;;;;;11.34;69.93;97034.09;5052947;28;20075;-81
2022/09/19 09:38:51;;;;;;;6.78;3.17;;;;;;;11.32;69.82;97034.25;5052512;28;20499;-78
2022/09/19 09:44:26;;;;;;;6.57;3.05;;;;;;;11.30;70.57;97036.28;5051209;28;20714;-78
2022/09/19 09:46:59;;;;;;;8.90;2.63;;;;;;;11.30;70.70;97038.03;5044107;28;20049;-80
2022/09/19 09:49:29;;;;;;;4.22;2.25;;;;;;;11.31;70.49;97037.06;5040551;28;20044;-78
2022/09/19 09:52:15;;;;;;;5.35;2.00;;;;;;;11.34;70.15;97039.31;5051803;28;20081;-80
2022/09/19 09:57:53;;;;;;;24.40;13.60;;;;;;;11.51;70.81;97034.78;5018597;28;20056;-80
2022/09/19 10:03:36;;;;;;;15.15;8.63;;;;;;;11.90;68.80;97034.59;5041955;28;20057;-79
2022/09/19 10:06:09;;;;;;;8.18;3.20;;;;;;;12.00;68.77;97036.13;5052464;28;20439;-80
2022/09/19 10:08:43;;;;;;;7.80;2.75;;;;;;;12.07;68.52;97034.41;5062498;28;20036;-80
2022/09/19 10:11:15;;;;;;;6.75;2.72;;;;;;;12.10;68.48;97040.09;5063374;28;20055;-82
2022/09/19 10:14:04;;;;;;;5.75;2.00;;;;;;;12.08;68.72;97036.06;5063935;28;20049;-81
2022/09/19 10:16:36;;;;;;;6.68;1.90;;;;;;;12.07;68.08;97034.41;5072407;28;20064;-81
2022/09/19 10:19:13;;;;;;;7.60;2.83;;;;;;;12.05;68.25;97042.47;5071589;28;20049;-81
2022/09/19 10:21:41;;;;;;;7.05;2.80;;;;;;;12.01;68.28;97040.38;5076611;28;20278;-82
2022/09/19 10:24:41;;;;;;;4.38;1.95;;;;;;;11.98;67.73;97045.97;5075720;28;20056;-81
2022/09/19 10:27:14;;;;;;;6.28;1.90;;;;;;;11.92;66.97;97047.50;5074604;28;20079;-81
2022/09/19 10:29:57;;;;;;;;;;;;;;;11.91;67.08;97051.91;5071105;28;20426;-81
2022/09/19 10:50:20;;;;;;;6.95;1.80;;;;;;;12.00;67.97;97055.25;5038020;28;20085;-84
2022/09/19 11:12:05;;;;;;;5.33;1.87;;;;;;;12.16;66.38;97069.97;5595601;23;20053;-85
2022/09/19 11:20:29;;;;;;;18.17;11.18;;;;;;;12.24;66.62;97062.00;5184823;22;20236;-84
2022/09/19 11:36:04;;;;;;;4.80;1.88;;;;;;;12.34;67.82;97065.16;5085679;23;20033;-86
2022/09/19 11:39:05;;;;;;;6.55;2.20;;;;;;;12.42;66.21;97061.66;5062791;28;20145;-86
2022/09/19 11:45:43;;;;;;;3.42;1.27;;;;;;;12.59;67.46;97054.41;4992603;28;20094;-79
2022/09/19 11:49:15;;;;;;;5.85;2.10;;;;;;;12.72;67.98;97049.31;5014020;28;20477;-81
2022/09/19 11:54:44;;;;;;;5.07;2.17;;;;;;;12.69;65.56;97062.78;5097116;22;20025;-84
2022/09/19 11:57:46;;;;;;;4.22;1.60;;;;;;;12.70;65.59;97056.56;5072067;28;20032;-84
2022/09/19 12:19:25;;;;;;;3.75;2.05;;;;;;;12.76;66.68;97040.09;5564309;22;20046;-83
2022/09/19 12:22:27;;;;;;;4.07;2.00;;;;;;;12.93;64.51;97039.91;5092734;28;20029;-83
2022/09/19 12:25:22;;;;;;;2.20;1.42;;;;;;;13.25;64.42;97035.16;5074624;28;20095;-83
2022/09/19 12:28:05;;;;;;;3.85;1.15;;;;;;;13.58;62.29;97033.66;5075828;28;20098;-84
2022/09/19 12:46:58;;;;;;;2.13;1.10;;;;;;;14.14;59.24;97016.28;5930262;22;20056;-81
2022/09/19 12:55:03;;;;;;;2.30;1.58;;;;;;;14.03;59.14;97009.75;5934430;23;20076;-81
2022/09/19 12:57:42;;;;;;;5.88;3.70;;;;;;;14.02;61.51;97014.19;5050161;28;20056;-81
2022/09/19 13:00:13;;;;;;;6.05;2.55;;;;;;;14.07;60.08;97002.31;5663600;22;20036;-81
2022/09/19 13:03:00;;;;;;;5.45;2.30;;;;;;;14.18;58.20;97004.38;5069898;28;20036;-83
2022/09/19 13:05:38;;;;;;;3.33;1.70;;;;;;;14.23;59.20;96996.72;5046963;28;20038;-81
2022/09/19 13:08:14;;;;;;;4.18;1.60;;;;;;;14.26;58.54;97003.44;5049025;28;20034;-80
2022/09/19 13:10:48;;;;;;;3.00;1.65;;;;;;;14.32;58.28;97000.84;5047147;28;20053;-81
2022/09/19 13:13:25;;;;;;;4.40;1.20;;;;;;;14.40;58.86;96998.00;5050170;28;20101;-82
2022/09/19 13:24:12;;;;;;;3.42;1.55;;;;;;;14.47;58.02;97007.75;5057384;28;20057;-81
2022/09/19 13:40:15;;;;;;;6.28;1.60;;;;;;;14.49;62.66;96988.16;5587351;23;20057;-81
2022/09/19 13:56:35;;;;;;;3.85;1.80;;;;;;;14.21;62.04;96998.75;5461513;23;20029;-83
2022/09/19 13:59:17;;;;;;;4.28;1.77;;;;;;;14.25;61.73;97002.59;5041907;28;20098;-84
2022/09/19 14:01:59;;;;;;;3.88;1.83;;;;;;;14.28;62.44;96999.59;5045290;28;20033;-84
2022/09/19 14:04:55;;;;;;;5.95;1.67;;;;;;;14.30;62.97;97004.63;5048906;28;20036;-84
2022/09/19 14:07:30;;;;;;;2.67;1.20;;;;;;;14.28;61.83;97002.22;5045711;28;20034;-83
2022/09/19 14:10:27;;;;;;;3.58;1.35;;;;;;;14.25;61.67;96999.16;5045263;28;20022;-83
2022/09/19 14:13:06;;;;;;;2.85;1.20;;;;;;;14.23;61.36;96994.09;5047675;28;20030;-85
2022/09/19 14:16:02;;;;;;;4.18;1.40;;;;;;;14.21;60.63;96990.88;5050140;28;20028;-85
2022/09/19 14:18:56;;;;;;;4.07;1.35;;;;;;;14.24;61.15;96989.69;5046339;28;20045;-83
2022/09/19 14:21:57;;;;;;;5.22;1.35;;;;;;;14.29;62.14;97001.22;5051004;28;20037;-83
2022/09/19 14:24:59;;;;;;;2.47;1.15;;;;;;;14.34;60.87;96998.81;5044782;28;20057;-84
2022/09/19 14:28:01;;;;;;;3.83;1.50;;;;;;;14.35;61.14;96997.81;5047958;28;20071;-83
2022/09/19 14:54:58;;;;;;;2.60;1.00;;;;;;;14.40;63.29;96994.59;5876011;23;20041;-83
2022/09/19 14:57:29;;;;;;;2.50;1.20;;;;;;;14.34;61.99;96998.81;5049435;28;20039;-84
2022/09/19 15:00:14;;;;;;;2.75;0.98;;;;;;;14.32;61.69;96992.97;5044478;28;20064;-84
2022/09/19 15:02:44;;;;;;;3.33;1.13;;;;;;;14.31;62.07;96996.56;5042052;28;20045;-85
2022/09/19 15:21:36;;;;;;;3.35;1.30;;;;;;;14.19;62.91;96987.63;5119008;22;20126;-80
2022/09/19 15:24:07;;;;;;;3.75;1.10;;;;;;;14.15;62.78;96994.28;5040326;28;20045;-77
2022/09/19 15:26:43;;;;;;;4.90;1.48;;;;;;;14.10;62.58;96986.19;5037130;28;20056;-78
2022/09/19 15:29:28;;;;;;;2.35;1.35;;;;;;;14.08;65.00;96993.44;5036317;28;20049;-79
2022/09/19 15:32:12;;;;;;;5.05;1.70;;;;;;;14.08;66.94;97001.28;5037038;28;20045;-77
2022/09/19 15:34:40;;;;;;;2.00;1.13;;;;;;;14.04;64.88;96994.81;5038105;28;20499;-78
2022/09/19 15:37:14;;;;;;;3.83;1.30;;;;;;;13.99;65.03;96990.97;5049603;28;20088;-81
2022/09/19 15:39:42;;;;;;;3.30;1.25;;;;;;;13.98;65.31;96991.16;5046478;28;20053;-80
2022/09/19 15:42:12;;;;;;;5.32;1.30;;;;;;;13.96;64.98;96987.94;5044813;28;20042;-80
2022/09/19 16:16:10;;;;;;;1.42;0.70;;;;;;;14.02;63.51;96987.16;5132339;23;20073;-84
2022/09/19 16:19:35;;;;;;;2.38;1.23;;;;;;;13.95;65.16;96981.88;5002683;28;20030;-83
2022/09/19 16:22:15;;;;;;;1.25;0.52;;;;;;;13.89;64.86;96977.41;5002974;28;20019;-84
2022/09/19 16:25:06;;;;;;;0.80;0.75;;;;;;;13.85;64.74;96978.78;4977517;29;20035;-84
2022/09/19 16:27:44;;;;;;;1.67;0.93;;;;;;;13.82;65.87;96981.81;4991612;28;20026;-82
2022/09/19 16:33:10;;;;;;;1.63;0.50;;;;;;;13.77;64.95;96994.66;5200648;23;20058;-82
